Taurus — WYH6499 — position and weather

sailwx.info

Track history (hours):
 
Tides and Currents Weather Stations Pressure Air Temp Water Temp Dewpoint Dewpoint Depression Visibility Wind Speed Wind Dir Waves Ship Positions

Taurus

Owner: DUNLAP TOWING CO, LA CONNER, WA. More information available from US FCC via Universal Licensing System and Coast Guard Vessel Documentation Center.

Last reported at 2018-May-24 05:19 UTC. Time now 2018-Jun-20 18:48 UTC.
Position N 47°59' W 122°13'.
Warning: this ship's position is 27 days out of date.

Type: Towing. MMSI: 303398000.

Date/timePositionNaut miles runAvg speedWind from/ knotsBaromVisibWave heightAir tempDewpointWater temp
2018-May-24 05:19N 47°59' W 122°13'1 3.0
2018-May-24 05:00N 47°59' W 122°14'3 5.6
2018-May-24 04:30N 47°58' W 122°18'4 7.9
2018-May-24 04:00N 47°55' W 122°22'4 7.7
2018-May-24 03:30N 47°54' W 122°27'5 9.1
2018-May-24 03:00N 47°56' W 122°33'5 8.4
2018-May-24 02:25N 48°00' W 122°38'5 1.0
2018-May-23 21:43N 47°57' W 122°32'2 8.4
2018-May-23 21:30N 47°56' W 122°30'4 8.3
2018-May-23 21:00N 47°54' W 122°25'4 7.3
2018-May-23 20:30N 47°56' W 122°21'5 6.7
2018-May-23 19:43N 47°59' W 122°15'1 4.2
2018-May-23 19:30N 47°59' W 122°14'  
Track history (hours):
 
Tides and Currents Weather Stations Pressure Air Temp Water Temp Dewpoint Dewpoint Depression Visibility Wind Speed Wind Dir Waves Ship Positions

Taurus

Owner: DUNLAP TOWING CO, LA CONNER, WA. More information available from US FCC via Universal Licensing System and Coast Guard Vessel Documentation Center.

Last reported at 2018-May-24 05:19 UTC. Time now 2018-Jun-20 18:48 UTC.
Position N 47°59' W 122°13'.
Warning: this ship's position is 27 days out of date.

Type: Towing. MMSI: 303398000.

Date/timePositionNaut miles runAvg speedWind from/ knotsBaromVisibWave heightAir tempDewpointWater temp
2018-May-24 05:19N 47°59' W 122°13'1 3.0
2018-May-24 05:00N 47°59' W 122°14'3 5.6
2018-May-24 04:30N 47°58' W 122°18'4 7.9
2018-May-24 04:00N 47°55' W 122°22'4 7.7
2018-May-24 03:30N 47°54' W 122°27'5 9.1
2018-May-24 03:00N 47°56' W 122°33'5 8.4
2018-May-24 02:25N 48°00' W 122°38'5 1.0
2018-May-23 21:43N 47°57' W 122°32'2 8.4
2018-May-23 21:30N 47°56' W 122°30'4 8.3
2018-May-23 21:00N 47°54' W 122°25'4 7.3
2018-May-23 20:30N 47°56' W 122°21'5 6.7
2018-May-23 19:43N 47°59' W 122°15'1 4.2
2018-May-23 19:30N 47°59' W 122°14'  

Dump ship's entire track history